Martinsburg, WV

1:00 AM EDT on August 01, 2015 (GMT -0400)
Down Town Martinsburg | | Change Station
CLOSE
Current Station
Personal Weather Station
Location: Martinsburg, WV
Elevation: 443 ft
Nearby Weather Stations

Elev 443 ft 39.46 °N, 77.96 °W | Updated 10 minutes ago

Clear
Clear
73.2 °F
Feels Like 76 °F
N
0.0
Wind Variable Wind from NNW

Today
High -- | Low -- °F
--% Chance of Precip.
Yesterday
High -- | Low -- °F
Precip. -- in
6:11 AM 8:24 PM
Full, 99% visible
Pressure 29.90 in
Visibility 10.0 miles
Clouds Clear
Heat Index 76 °F
Dew Point 61 °F
Humidity 65%
Rainfall 0.00 in
Snow Depth Not available.
UV 0 out of 12
Pollen 6.60 out of 12
Air Quality Not available.
Flu Activity Not available.
METAR KMRB 010453Z AUTO 21005KT 10SM CLR 22/14 A2991 RMK AO2 SLP123 T02170144 403110178 TSNO

More Conditions Fewer Conditions

Pressure 29.90 in
Visibility 10.0 miles
Clouds Clear
Heat Index 76 °F
Dew Point 61 °F
Humidity 65%
Rainfall 0.00 in
Snow Depth Not available.
UV 0 out of 12
Pollen 6.60 out of 12
Air Quality Not available.
Flu Activity Not available.
METAR KMRB 010453Z AUTO 21005KT 10SM CLR 22/14 A2991 RMK AO2 SLP123 T02170144 403110178 TSNO

More Conditions Fewer Conditions

10-Day Weather Forecast

×

Almanac

Astronomy

Aug. 01, 2015 Rise Set
Actual Time
Civil Twilight
Nautical Twilight
Astronomical Twilight
Moon
Length of Visible Light
Length of Day
Tomorrow will be .
, % of the Moon is Illuminated

Today's Extremes

State Highs State Lows

Community

WunderPhotos

Upload Photos

1,842,889 photos uploaded!

WunderBlogs® & News

Nearby

Air Quality

  Air Quality AQ Index Pollutant
Not available.

Snow Depth

Station Depth Elevation

Earthquake Activity

City Distance Mag. Time & Date
Minimum magnitude displayed is 2.5.

Coastal Water Temperatures

Place Temperature

Stations

Nearby Weather Stations

Station Location Temp. Windchill Dew Point Humidity Wind Precip. Elev Updated Type